ADDS METAR Data INFO
IDs: Format: Raw Decoded Include TAF

Data at: 0931 UTC 11 Dec 2017

KHSA 110250Z 00000KT 10SM CLR 02/02 A3036
KHSA 110150Z 00000KT 10SM CLR 02/02 A3035
KHSA 110055Z 00000KT 10SM CLR 05/04 A3034
KHSA 102358Z 00000KT 10SM CLR 05/04 A3034
KHSA 102250Z 00000KT 10SM CLR 09/06 A3033
KHSA 102150Z 14007KT 10SM CLR 13/05 A3032
KHSA 102055Z 10006KT 10SM CLR 14/05 A3032
KHSA 101950Z 20004KT 7SM CLR 15/04 A3033
KHSA 101851Z 16006KT 7SM CLR 13/04 A3035
KHSA 101751Z 14004KT 7SM CLR 12/03 A3038
KHSA 101653Z 15005KT 7SM CLR 12/03 A3041
KHSA 101554Z 11005KT 7SM CLR 09/00 A3043
KHSA 101455Z 09003KT 7SM CLR 06/02 A3042
KHSA 101355Z 00000KT 7SM CLR 00/00 A3039
KHSA 101255Z 00000KT 7SM CLR M02/M02 A3038
KHSA 100155Z 00000KT 7SM CLR 00/00 A3027
KHSA 100055Z 00000KT 7SM CLR 03/01 A3022
KHSA 092355Z 00000KT 7SM CLR 03/01 A3022
KHSA 092255Z 00000KT 7SM CLR 06/00 A3019
KHSA 092155Z 30007KT 7SM CLR 09/M02 A3018